createdAt,value
2019-03-26T00:00:57.530Z,7.13
2019-03-26T00:03:28.905Z,8.23
2019-03-26T00:06:00.168Z,8.93
2019-03-26T00:08:31.579Z,4.37
2019-03-26T00:11:03.550Z,5.70
2019-03-26T00:13:34.827Z,3.77
2019-03-26T00:16:06.169Z,6.23
2019-03-26T00:18:37.592Z,5.70
2019-03-26T00:21:08.867Z,5.40
2019-03-26T00:23:46.039Z,5.30
2019-03-26T00:26:17.401Z,5.53
2019-03-26T00:28:48.697Z,4.00
2019-03-26T00:31:21.017Z,5.27
2019-03-26T00:33:52.358Z,5.13
2019-03-26T00:36:23.746Z,5.77
2019-03-26T00:38:55.156Z,5.13
2019-03-26T00:41:26.469Z,5.50
2019-03-26T00:43:57.795Z,5.00
2019-03-26T00:46:29.186Z,5.43
2019-03-26T00:49:00.615Z,4.43
2019-03-26T00:51:31.936Z,5.63
2019-03-26T00:54:05.000Z,4.13
2019-03-26T00:56:36.405Z,6.27
2019-03-26T00:59:07.779Z,6.40
2019-03-26T01:01:39.120Z,6.57
2019-03-26T01:04:10.636Z,5.60
2019-03-26T01:06:41.932Z,7.10
2019-03-26T01:09:13.290Z,8.73
2019-03-26T01:11:44.634Z,5.57
2019-03-26T01:14:15.988Z,7.20
2019-03-26T01:16:47.210Z,7.57
2019-03-26T01:19:18.565Z,9.13
2019-03-26T01:21:49.862Z,8.17
2019-03-26T01:24:21.209Z,5.97
2019-03-26T01:26:52.441Z,7.27
2019-03-26T01:29:23.772Z,8.37
2019-03-26T01:31:55.135Z,8.20
2019-03-26T01:34:26.472Z,6.03
2019-03-26T01:36:57.690Z,8.40
2019-03-26T01:39:29.030Z,8.57
2019-03-26T01:42:00.765Z,6.87
2019-03-26T01:44:33.110Z,4.67
2019-03-26T01:47:04.472Z,4.90
2019-03-26T01:49:35.765Z,8.50
2019-03-26T01:52:07.034Z,8.13
2019-03-26T01:54:38.426Z,6.83
2019-03-26T01:57:09.720Z,4.87
2019-03-26T01:59:41.197Z,8.83
2019-03-26T02:02:12.499Z,7.87
2019-03-26T02:04:59.437Z,6.60
2019-03-26T02:07:19.897Z,10.50
2019-03-26T02:09:51.176Z,8.83
2019-03-26T02:12:22.407Z,4.93
2019-03-26T02:14:53.677Z,6.67
2019-03-26T02:17:24.907Z,8.60
2019-03-26T02:19:56.220Z,9.13
2019-03-26T02:22:27.579Z,5.83
2019-03-26T02:24:58.850Z,8.47
2019-03-26T02:27:30.075Z,7.03
2019-03-26T02:30:01.359Z,6.33
2019-03-26T02:32:32.652Z,9.50
2019-03-26T02:35:16.866Z,9.53
2019-03-26T02:37:37.014Z,10.93
2019-03-26T02:40:08.630Z,7.40
2019-03-26T02:42:39.999Z,4.47
2019-03-26T02:45:11.446Z,6.53
2019-03-26T02:47:42.680Z,9.33
2019-03-26T02:50:14.152Z,6.57
2019-03-26T02:52:46.448Z,7.87
2019-03-26T02:55:17.984Z,9.33
2019-03-26T02:57:49.356Z,10.40
2019-03-26T03:00:22.416Z,6.00
2019-03-26T03:02:53.720Z,7.07
2019-03-26T03:05:35.331Z,6.43
2019-03-26T03:07:58.082Z,6.73
2019-03-26T03:10:29.560Z,6.53
2019-03-26T03:13:00.788Z,7.10
2019-03-26T03:15:32.069Z,4.87
2019-03-26T03:18:03.401Z,6.70
2019-03-26T03:20:35.119Z,8.03
2019-03-26T03:23:06.439Z,7.07
2019-03-26T03:25:37.855Z,4.83
2019-03-26T03:28:09.097Z,7.13
2019-03-26T03:30:40.554Z,6.67
2019-03-26T03:33:12.023Z,8.30
2019-03-26T03:35:52.077Z,7.13
2019-03-26T03:38:16.370Z,6.97
2019-03-26T03:40:47.706Z,7.00
2019-03-26T03:43:19.070Z,5.53
2019-03-26T03:45:56.136Z,10.43
2019-03-26T03:48:27.818Z,7.93
2019-03-26T03:50:59.727Z,6.90
2019-03-26T03:53:31.270Z,7.87
2019-03-26T03:56:03.774Z,5.47
2019-03-26T03:58:36.771Z,5.40
2019-03-26T04:01:08.102Z,11.07
2019-03-26T04:03:39.371Z,6.57
2019-03-26T04:06:10.709Z,8.97
2019-03-26T04:08:41.930Z,7.17
2019-03-26T04:11:13.266Z,7.23
2019-03-26T04:13:44.604Z,7.70
2019-03-26T04:16:16.089Z,7.23
2019-03-26T04:18:47.579Z,8.00
2019-03-26T04:21:21.440Z,8.50
2019-03-26T04:23:52.693Z,9.00
2019-03-26T04:26:24.063Z,7.00
2019-03-26T04:28:56.427Z,7.93
2019-03-26T04:31:27.728Z,5.27
2019-03-26T04:33:58.954Z,5.10
2019-03-26T04:36:30.303Z,5.40
2019-03-26T04:39:01.595Z,8.97
2019-03-26T04:41:34.349Z,8.00
2019-03-26T04:44:08.402Z,8.00
2019-03-26T04:46:39.702Z,7.73
2019-03-26T04:49:11.083Z,10.73
2019-03-26T04:51:42.354Z,4.63
2019-03-26T04:54:13.673Z,8.73
2019-03-26T04:56:44.949Z,9.60
2019-03-26T04:59:16.459Z,5.47
2019-03-26T05:01:47.780Z,6.47
2019-03-26T05:04:19.127Z,9.37
2019-03-26T05:06:50.428Z,6.03
2019-03-26T05:09:23.402Z,9.47
2019-03-26T05:11:54.631Z,11.17
2019-03-26T05:14:25.953Z,7.07
2019-03-26T05:16:57.263Z,6.77
2019-03-26T05:19:28.487Z,6.13
2019-03-26T05:22:00.138Z,7.13
2019-03-26T05:24:31.433Z,6.07
2019-03-26T05:27:02.769Z,6.37
2019-03-26T05:29:34.182Z,5.57
2019-03-26T05:32:05.511Z,10.50
2019-03-26T05:34:36.745Z,7.83
2019-03-26T05:37:08.032Z,8.57
2019-03-26T05:39:39.254Z,6.43
2019-03-26T05:42:10.627Z,9.03
2019-03-26T05:44:41.925Z,6.20
2019-03-26T05:47:13.150Z,8.53
2019-03-26T05:49:44.522Z,5.83
2019-03-26T05:52:15.845Z,6.10
2019-03-26T05:54:47.258Z,9.77
2019-03-26T05:57:18.561Z,7.50
2019-03-26T05:59:49.916Z,7.70
2019-03-26T06:02:21.144Z,6.63
2019-03-26T06:04:52.515Z,10.80
2019-03-26T06:07:23.800Z,9.23
2019-03-26T06:09:55.106Z,9.93
2019-03-26T06:12:26.338Z,6.10
2019-03-26T06:14:57.698Z,8.53
2019-03-26T06:17:28.976Z,9.80
2019-03-26T06:20:00.431Z,9.97
2019-03-26T06:22:31.884Z,9.03
2019-03-26T06:25:03.491Z,7.70
2019-03-26T06:27:34.912Z,10.00
2019-03-26T06:30:10.576Z,9.10
2019-03-26T06:32:41.939Z,15.93
2019-03-26T06:35:16.556Z,6.43
2019-03-26T06:37:47.926Z,5.73
2019-03-26T06:40:19.284Z,8.33
2019-03-26T06:42:51.813Z,8.50
2019-03-26T06:45:23.174Z,11.63
2019-03-26T06:47:54.637Z,8.97
2019-03-26T06:50:26.789Z,7.53
2019-03-26T06:52:58.202Z,11.87
2019-03-26T06:55:29.494Z,6.63
2019-03-26T06:58:00.847Z,6.53
2019-03-26T07:00:34.372Z,6.37
2019-03-26T07:03:08.106Z,7.03
2019-03-26T07:05:39.441Z,8.20
2019-03-26T07:08:10.823Z,6.17
2019-03-26T07:10:42.048Z,9.97
2019-03-26T07:13:13.350Z,10.50
2019-03-26T07:15:44.566Z,8.03
2019-03-26T07:18:15.899Z,10.27
2019-03-26T07:20:47.259Z,8.50
2019-03-26T07:23:18.672Z,9.80
2019-03-26T07:25:50.037Z,5.47
2019-03-26T07:28:21.455Z,8.63
2019-03-26T07:30:52.747Z,4.83
2019-03-26T07:33:24.118Z,6.77
2019-03-26T07:35:55.351Z,7.60
2019-03-26T07:38:26.896Z,8.37
2019-03-26T07:40:58.201Z,5.62
2019-03-26T07:43:29.544Z,8.07
2019-03-26T07:46:01.640Z,8.77
2019-03-26T07:48:32.945Z,9.33
2019-03-26T07:51:05.186Z,10.77
2019-03-26T07:53:36.560Z,5.93
2019-03-26T07:56:08.037Z,9.80
2019-03-26T07:58:39.386Z,7.23
2019-03-26T08:01:10.616Z,9.33
2019-03-26T08:03:42.124Z,8.40
2019-03-26T08:06:13.351Z,7.73
2019-03-26T08:08:44.642Z,7.90
2019-03-26T08:11:16.100Z,10.53
2019-03-26T08:13:47.571Z,10.27
2019-03-26T08:16:19.042Z,9.67
2019-03-26T08:18:50.333Z,10.77
2019-03-26T08:21:21.638Z,12.93
2019-03-26T08:23:53.069Z,9.60
2019-03-26T08:26:24.295Z,10.87
2019-03-26T08:28:55.642Z,13.83
2019-03-26T08:31:27.014Z,12.40
2019-03-26T08:33:58.319Z,13.10
2019-03-26T08:36:29.682Z,14.10
2019-03-26T08:39:00.968Z,14.90
2019-03-26T08:41:33.799Z,18.23
2019-03-26T08:44:05.231Z,17.62
2019-03-26T08:46:36.546Z,16.33
2019-03-26T08:49:07.980Z,13.83
2019-03-26T08:51:40.082Z,14.80
2019-03-26T08:54:11.372Z,14.70
2019-03-26T08:56:42.679Z,14.03
2019-03-26T08:59:14.038Z,14.43
2019-03-26T09:01:45.270Z,17.00
2019-03-26T09:04:16.572Z,13.70
2019-03-26T09:06:47.950Z,14.63
2019-03-26T09:09:19.381Z,17.67
2019-03-26T09:11:50.623Z,15.08
2019-03-26T09:14:21.971Z,11.57
2019-03-26T09:16:53.281Z,11.83
2019-03-26T09:19:24.664Z,18.37
2019-03-26T09:21:56.033Z,14.07
2019-03-26T09:24:27.382Z,13.50
2019-03-26T09:26:58.719Z,11.53
2019-03-26T09:29:30.003Z,12.25
2019-03-26T09:32:01.250Z,12.18
2019-03-26T09:34:32.615Z,13.28
2019-03-26T09:37:04.139Z,11.33
2019-03-26T09:39:38.251Z,12.33
2019-03-26T09:42:08.503Z,16.50
2019-03-26T09:44:39.863Z,11.18
2019-03-26T09:47:16.340Z,13.30
2019-03-26T09:49:44.168Z,12.15
2019-03-26T09:52:15.476Z,15.98
2019-03-26T09:54:46.897Z,15.68
2019-03-26T09:57:18.268Z,12.25
2019-03-26T09:59:49.618Z,11.18
2019-03-26T10:02:20.920Z,11.22
2019-03-26T10:04:52.224Z,10.43
2019-03-26T10:07:23.521Z,9.63
2019-03-26T10:09:54.952Z,12.45
2019-03-26T10:12:26.205Z,11.33
2019-03-26T10:14:57.567Z,10.10
2019-03-26T10:17:28.803Z,8.60
2019-03-26T10:20:00.374Z,13.08
2019-03-26T10:22:31.757Z,14.07
2019-03-26T10:25:03.037Z,11.90
2019-03-26T10:27:35.174Z,11.25
2019-03-26T10:30:10.289Z,13.68
2019-03-26T10:32:41.876Z,13.60
2019-03-26T10:35:13.254Z,15.53
2019-03-26T10:37:44.637Z,13.53
2019-03-26T10:40:23.315Z,14.63
2019-03-26T10:42:54.603Z,16.27
2019-03-26T10:45:25.878Z,15.63
2019-03-26T10:48:00.065Z,16.60
2019-03-26T10:50:31.331Z,15.65
2019-03-26T10:53:02.660Z,19.65
2019-03-26T10:55:35.263Z,22.80
2019-03-26T10:58:07.700Z,22.93
2019-03-26T11:00:39.090Z,23.65
2019-03-26T11:03:10.514Z,25.68
2019-03-26T11:05:41.759Z,21.45
2019-03-26T11:08:13.137Z,22.50
2019-03-26T11:10:44.458Z,27.98
2019-03-26T11:13:15.707Z,29.00
2019-03-26T11:15:47.086Z,23.30
2019-03-26T11:18:18.546Z,28.20
2019-03-26T11:21:01.863Z,22.85
2019-03-26T11:23:22.922Z,23.50
2019-03-26T11:25:55.461Z,18.37
2019-03-26T11:28:26.702Z,20.77
2019-03-26T11:30:57.984Z,18.77
2019-03-26T11:33:29.330Z,20.37
2019-03-26T11:36:00.705Z,20.27
2019-03-26T11:38:32.135Z,24.37
2019-03-26T11:41:03.437Z,17.67
2019-03-26T11:43:34.745Z,18.90
2019-03-26T11:46:06.191Z,19.15
2019-03-26T11:48:37.485Z,21.07
2019-03-26T11:51:08.960Z,18.95
2019-03-26T11:53:40.204Z,22.25
2019-03-26T11:56:11.508Z,18.82
2019-03-26T11:58:42.819Z,18.95
2019-03-26T12:01:14.205Z,21.40
2019-03-26T12:03:45.526Z,18.75
2019-03-26T12:06:16.846Z,21.73
2019-03-26T12:08:48.090Z,19.10
2019-03-26T12:11:19.389Z,19.45
2019-03-26T12:13:50.703Z,17.57
2019-03-26T12:16:22.007Z,17.37
2019-03-26T12:18:53.320Z,17.70
2019-03-26T12:21:24.626Z,15.93
2019-03-26T12:23:55.869Z,27.02
2019-03-26T12:26:27.368Z,17.05
2019-03-26T12:28:58.621Z,20.40
2019-03-26T12:31:29.938Z,19.87
2019-03-26T12:34:01.677Z,17.90
2019-03-26T12:36:39.980Z,15.28
2019-03-26T12:39:08.091Z,15.28
2019-03-26T12:41:39.503Z,18.55
2019-03-26T12:44:10.877Z,17.57
2019-03-26T12:46:42.108Z,21.85
2019-03-26T12:49:13.578Z,23.80
2019-03-26T12:51:44.852Z,29.65
2019-03-26T12:54:17.863Z,17.42
2019-03-26T12:56:50.294Z,17.30
2019-03-26T12:59:21.534Z,16.48
2019-03-26T13:01:52.779Z,18.12
2019-03-26T13:04:24.100Z,16.02
2019-03-26T13:06:55.405Z,18.67
2019-03-26T13:09:26.709Z,14.83
2019-03-26T13:11:58.212Z,20.00
2019-03-26T13:14:29.658Z,16.48
2019-03-26T13:17:00.974Z,12.78
2019-03-26T13:19:32.360Z,11.93
2019-03-26T13:22:03.668Z,14.93
2019-03-26T13:24:35.029Z,14.07
2019-03-26T13:27:06.268Z,12.68
2019-03-26T13:29:39.668Z,11.08
2019-03-26T13:32:13.057Z,9.78
2019-03-26T13:34:44.043Z,10.72
2019-03-26T13:37:15.282Z,13.05
2019-03-26T13:39:46.686Z,11.88
2019-03-26T13:42:18.019Z,11.18
2019-03-26T13:44:49.333Z,14.47
2019-03-26T13:47:20.785Z,16.27
2019-03-26T13:49:52.143Z,11.30
2019-03-26T13:52:23.443Z,12.50
2019-03-26T13:54:54.750Z,15.98
2019-03-26T13:57:26.032Z,12.85
2019-03-26T13:59:57.511Z,12.53
2019-03-26T14:02:30.805Z,11.45
2019-03-26T14:05:02.112Z,13.22
2019-03-26T14:07:33.614Z,9.50
2019-03-26T14:10:09.304Z,11.00
2019-03-26T14:12:40.613Z,10.35
2019-03-26T14:15:12.098Z,13.60
2019-03-26T14:17:43.402Z,10.48
2019-03-26T14:20:15.466Z,11.18
2019-03-26T14:22:46.988Z,11.10
2019-03-26T14:25:18.366Z,10.85
2019-03-26T14:27:50.309Z,10.43
2019-03-26T14:30:40.901Z,10.43
2019-03-26T14:33:12.975Z,10.50
2019-03-26T14:35:44.423Z,10.60
2019-03-26T14:38:15.829Z,22.32
2019-03-26T14:40:54.668Z,11.70
2019-03-26T14:43:20.358Z,10.58
2019-03-26T14:45:51.829Z,12.53
2019-03-26T14:48:23.360Z,11.57
2019-03-26T14:50:54.708Z,8.70
2019-03-26T14:53:26.129Z,11.73
2019-03-26T14:55:58.242Z,9.90
2019-03-26T14:58:29.634Z,9.20
2019-03-26T15:01:01.287Z,11.22
2019-03-26T15:03:33.196Z,13.05
2019-03-26T15:06:07.496Z,10.90
2019-03-26T15:08:38.965Z,11.05
2019-03-26T15:11:10.441Z,11.73
2019-03-26T15:13:41.928Z,13.62
2019-03-26T15:16:13.165Z,13.70
2019-03-26T15:18:44.596Z,12.70
2019-03-26T15:21:19.323Z,14.35
2019-03-26T15:24:11.028Z,19.07
2019-03-26T15:26:42.321Z,13.05
2019-03-26T15:29:15.126Z,15.45
2019-03-26T15:31:46.566Z,13.55
2019-03-26T15:34:17.945Z,15.70
2019-03-26T15:36:49.351Z,14.30
2019-03-26T15:39:20.916Z,15.48
2019-03-26T15:41:52.436Z,12.25
2019-03-26T15:44:26.156Z,12.88
2019-03-26T15:46:57.543Z,13.40
2019-03-26T15:49:31.967Z,11.63
2019-03-26T15:52:03.217Z,10.50
2019-03-26T15:54:34.673Z,13.18
2019-03-26T15:57:06.726Z,12.88
2019-03-26T15:59:38.171Z,14.50
2019-03-26T16:02:09.634Z,12.73
2019-03-26T16:04:41.026Z,13.75
2019-03-26T16:07:12.410Z,14.55
2019-03-26T16:09:43.814Z,12.13
2019-03-26T16:12:17.231Z,12.90
2019-03-26T16:14:48.540Z,12.33
2019-03-26T16:17:19.861Z,13.22
2019-03-26T16:19:51.157Z,11.68
2019-03-26T16:22:22.460Z,12.47
2019-03-26T16:24:53.980Z,12.28
2019-03-26T16:27:25.220Z,10.78
2019-03-26T16:29:56.576Z,16.07
2019-03-26T16:32:28.175Z,10.72
2019-03-26T16:34:59.523Z,11.55
2019-03-26T16:37:36.214Z,10.72
2019-03-26T16:40:08.249Z,11.12
2019-03-26T16:42:39.523Z,10.00
2019-03-26T16:45:11.712Z,11.83
2019-03-26T16:47:43.113Z,9.60
2019-03-26T16:50:14.702Z,10.63
2019-03-26T16:52:45.936Z,11.08
2019-03-26T16:55:17.392Z,10.23
2019-03-26T16:57:49.856Z,8.68
2019-03-26T17:00:30.712Z,12.80
2019-03-26T17:03:02.222Z,14.40
2019-03-26T17:05:33.737Z,9.28
2019-03-26T17:08:05.645Z,10.20
2019-03-26T17:10:37.106Z,14.03
2019-03-26T17:13:08.496Z,21.95
2019-03-26T17:15:40.002Z,11.68
2019-03-26T17:18:11.300Z,9.30
2019-03-26T17:20:43.821Z,12.33
2019-03-26T17:23:15.121Z,8.50
2019-03-26T17:25:46.548Z,11.70
2019-03-26T17:28:18.922Z,15.23
2019-03-26T17:30:50.362Z,8.48
2019-03-26T17:33:21.639Z,11.70
2019-03-26T17:35:53.198Z,14.20
2019-03-26T17:38:24.647Z,11.33
2019-03-26T17:40:59.261Z,15.65
2019-03-26T17:43:30.649Z,35.92
2019-03-26T17:46:02.031Z,23.05
2019-03-26T17:48:34.352Z,20.12
2019-03-26T17:51:05.853Z,15.32
2019-03-26T17:53:37.235Z,14.43
2019-03-26T17:56:08.753Z,18.07
2019-03-26T17:58:40.125Z,18.10
2019-03-26T18:01:14.923Z,12.18
2019-03-26T18:03:46.418Z,9.70
2019-03-26T18:06:17.789Z,8.83
2019-03-26T18:08:49.111Z,10.08
2019-03-26T18:11:20.487Z,10.23
2019-03-26T18:13:51.744Z,16.82
2019-03-26T18:16:23.125Z,14.93
2019-03-26T18:18:55.077Z,11.18
2019-03-26T18:21:27.428Z,17.82
2019-03-26T18:23:58.814Z,18.00
2019-03-26T18:26:30.184Z,16.48
2019-03-26T18:29:01.492Z,15.13
2019-03-26T18:31:32.795Z,10.13
2019-03-26T18:34:04.240Z,13.40
2019-03-26T18:36:38.954Z,17.03
2019-03-26T18:39:10.338Z,16.40
2019-03-26T18:41:42.058Z,15.93
2019-03-26T18:44:15.086Z,14.50
2019-03-26T18:46:46.856Z,12.73
2019-03-26T18:49:18.286Z,13.62
2019-03-26T18:51:49.872Z,15.65
2019-03-26T18:54:21.337Z,14.05
2019-03-26T18:56:52.708Z,13.93
2019-03-26T18:59:24.731Z,15.38
2019-03-26T19:01:56.295Z,14.80
2019-03-26T19:04:32.694Z,16.37
2019-03-26T19:07:18.393Z,13.18
2019-03-26T19:09:49.811Z,13.87
2019-03-26T19:12:21.357Z,12.63
2019-03-26T19:14:52.816Z,12.03
2019-03-26T19:17:24.364Z,15.40
2019-03-26T19:19:58.249Z,18.67
2019-03-26T19:22:28.937Z,22.15
2019-03-26T19:25:00.445Z,57.17
2019-03-26T19:27:33.989Z,45.45
2019-03-26T19:30:08.360Z,21.10
2019-03-26T19:32:39.779Z,18.75
2019-03-26T19:35:11.527Z,17.62
2019-03-26T19:37:43.237Z,17.15
2019-03-26T19:40:14.825Z,17.83
2019-03-26T19:42:46.237Z,18.30
2019-03-26T19:45:17.788Z,14.60
2019-03-26T19:47:49.349Z,16.85
2019-03-26T19:50:21.093Z,26.63
2019-03-26T19:52:52.402Z,31.73
2019-03-26T19:55:24.665Z,28.37
2019-03-26T19:57:55.984Z,27.67
2019-03-26T20:00:27.502Z,22.37
2019-03-26T20:02:59.003Z,20.20
2019-03-26T20:05:30.464Z,23.53
2019-03-26T20:08:01.914Z,20.20
2019-03-26T20:10:34.291Z,24.50
2019-03-26T20:13:05.755Z,20.30
2019-03-26T20:15:37.151Z,22.87
2019-03-26T20:18:08.514Z,22.03
2019-03-26T20:20:39.897Z,19.83
2019-03-26T20:23:11.205Z,25.95
2019-03-26T20:25:42.702Z,21.43
2019-03-26T20:28:14.317Z,18.83
2019-03-26T20:30:47.056Z,19.47
2019-03-26T20:33:18.550Z,15.80
2019-03-26T20:35:50.006Z,17.15
2019-03-26T20:38:21.480Z,25.13
2019-03-26T20:40:53.019Z,26.37
2019-03-26T20:43:36.538Z,24.87
2019-03-26T20:45:57.637Z,17.70
2019-03-26T20:48:30.098Z,17.57
2019-03-26T20:51:01.596Z,17.80
2019-03-26T20:53:32.911Z,18.93
2019-03-26T20:56:04.441Z,20.10
2019-03-26T20:58:36.368Z,18.33
2019-03-26T21:01:09.171Z,16.73
2019-03-26T21:03:41.281Z,17.70
2019-03-26T21:06:13.689Z,21.67
2019-03-26T21:08:45.031Z,21.77
2019-03-26T21:11:16.597Z,22.47
2019-03-26T21:13:50.902Z,19.07
2019-03-26T21:16:20.882Z,26.37
2019-03-26T21:18:52.255Z,20.03
2019-03-26T21:21:23.583Z,20.40
2019-03-26T21:23:54.894Z,29.90
2019-03-26T21:26:26.410Z,21.70
2019-03-26T21:28:57.733Z,15.53
2019-03-26T21:31:29.183Z,16.93
2019-03-26T21:34:00.599Z,12.90
2019-03-26T21:36:31.913Z,18.03
2019-03-26T21:39:04.201Z,18.50
2019-03-26T21:41:35.715Z,16.53
2019-03-26T21:44:08.678Z,21.63
2019-03-26T21:46:39.925Z,17.55
2019-03-26T21:49:11.510Z,17.63
2019-03-26T21:51:42.911Z,18.30
2019-03-26T21:54:14.360Z,14.43
2019-03-26T21:56:45.601Z,16.30
2019-03-26T21:59:17.119Z,13.20
2019-03-26T22:01:48.692Z,14.80
2019-03-26T22:04:20.412Z,13.83
2019-03-26T22:06:51.850Z,15.47
2019-03-26T22:09:23.236Z,13.90
2019-03-26T22:11:54.473Z,14.47
2019-03-26T22:14:26.008Z,16.00
2019-03-26T22:16:57.394Z,16.97
2019-03-26T22:19:29.162Z,14.37
2019-03-26T22:22:00.527Z,12.80
2019-03-26T22:24:32.999Z,15.80
2019-03-26T22:27:04.225Z,13.80
2019-03-26T22:29:36.478Z,17.43
2019-03-26T22:32:07.883Z,16.27
2019-03-26T22:34:39.185Z,20.60
2019-03-26T22:37:16.231Z,20.57
2019-03-26T22:39:47.615Z,15.53
2019-03-26T22:42:19.054Z,15.07
2019-03-26T22:44:50.284Z,15.57
2019-03-26T22:47:21.778Z,19.83
2019-03-26T22:49:53.226Z,15.87
2019-03-26T22:52:24.749Z,16.30
2019-03-26T22:54:56.082Z,17.37
2019-03-26T22:57:27.497Z,19.30
2019-03-26T23:00:00.467Z,20.17
2019-03-26T23:02:32.060Z,19.83
2019-03-26T23:05:03.546Z,15.93
2019-03-26T23:07:37.197Z,19.67
2019-03-26T23:10:09.330Z,16.83
2019-03-26T23:12:40.917Z,16.50
2019-03-26T23:15:24.598Z,22.90
2019-03-26T23:17:56.021Z,14.37
2019-03-26T23:20:27.301Z,15.90
2019-03-26T23:22:58.664Z,21.80
2019-03-26T23:25:29.941Z,18.87
2019-03-26T23:28:01.268Z,17.27
2019-03-26T23:30:32.942Z,17.53
2019-03-26T23:33:04.330Z,18.00
2019-03-26T23:35:36.684Z,17.65
2019-03-26T23:38:08.034Z,15.80
2019-03-26T23:40:39.369Z,15.03
2019-03-26T23:43:10.844Z,15.73
2019-03-26T23:45:42.202Z,14.67
2019-03-26T23:48:13.546Z,15.93
2019-03-26T23:50:44.899Z,16.27
2019-03-26T23:53:16.388Z,15.30
2019-03-26T23:55:47.748Z,15.87
2019-03-26T23:58:18.985Z,20.47
